sensor_id;sensor_type;location;lat;lon;timestamp;pressure;altitude;pressure_sealevel;temperature;humidity
78223;BME280;67497;53.058;21.618;2024-02-26T00:00:42;99578.59;;;5.31;92.98
78223;BME280;67497;53.058;21.618;2024-02-26T00:02:42;99569.88;;;5.28;93.21
78223;BME280;67497;53.058;21.618;2024-02-26T00:04:42;99581.06;;;5.34;93.73
78223;BME280;67497;53.058;21.618;2024-02-26T00:06:43;99584.75;;;5.33;93.71
78223;BME280;67497;53.058;21.618;2024-02-26T00:08:44;99585.88;;;5.31;93.33
78223;BME280;67497;53.058;21.618;2024-02-26T00:10:44;99594.91;;;5.31;93.14
78223;BME280;67497;53.058;21.618;2024-02-26T00:12:45;99584.59;;;5.25;93.33
78223;BME280;67497;53.058;21.618;2024-02-26T00:14:45;99595.03;;;5.30;92.83
78223;BME280;67497;53.058;21.618;2024-02-26T00:16:47;99597.03;;;5.28;93.39
78223;BME280;67497;53.058;21.618;2024-02-26T00:18:47;99598.44;;;5.22;92.72
78223;BME280;67497;53.058;21.618;2024-02-26T00:20:48;99575.81;;;5.12;92.46
78223;BME280;67497;53.058;21.618;2024-02-26T00:22:48;99595.28;;;5.17;92.33
78223;BME280;67497;53.058;21.618;2024-02-26T00:24:48;99574.66;;;5.05;91.57
78223;BME280;67497;53.058;21.618;2024-02-26T00:26:49;99599.72;;;5.18;92.71
78223;BME280;67497;53.058;21.618;2024-02-26T00:28:53;99580.53;;;5.10;93.90
78223;BME280;67497;53.058;21.618;2024-02-26T00:30:53;99587.13;;;5.17;93.76
78223;BME280;67497;53.058;21.618;2024-02-26T00:32:56;99591.97;;;5.14;92.36
78223;BME280;67497;53.058;21.618;2024-02-26T00:34:56;99594.97;;;5.11;92.13
78223;BME280;67497;53.058;21.618;2024-02-26T00:36:56;99589.94;;;5.06;91.34
78223;BME280;67497;53.058;21.618;2024-02-26T00:38:57;99586.06;;;4.99;90.96
78223;BME280;67497;53.058;21.618;2024-02-26T00:40:57;99583.47;;;4.98;90.95
78223;BME280;67497;53.058;21.618;2024-02-26T00:42:57;99575.56;;;4.85;91.67
78223;BME280;67497;53.058;21.618;2024-02-26T00:44:58;99575.66;;;4.74;90.91
78223;BME280;67497;53.058;21.618;2024-02-26T00:46:58;99580.09;;;4.75;90.86
78223;BME280;67497;53.058;21.618;2024-02-26T00:48:59;99570.28;;;4.63;89.91
78223;BME280;67497;53.058;21.618;2024-02-26T00:51:00;99591.28;;;4.61;89.65
78223;BME280;67497;53.058;21.618;2024-02-26T00:53:01;99578.06;;;4.47;89.54
78223;BME280;67497;53.058;21.618;2024-02-26T00:55:02;99578.00;;;4.37;88.42
78223;BME280;67497;53.058;21.618;2024-02-26T00:57:03;99576.53;;;4.33;89.42
78223;BME280;67497;53.058;21.618;2024-02-26T00:59:03;99583.22;;;4.29;89.88
78223;BME280;67497;53.058;21.618;2024-02-26T01:01:04;99573.16;;;4.20;89.98
78223;BME280;67497;53.058;21.618;2024-02-26T01:03:04;99576.75;;;4.20;90.69
78223;BME280;67497;53.058;21.618;2024-02-26T01:05:05;99579.31;;;4.22;91.60
78223;BME280;67497;53.058;21.618;2024-02-26T01:07:06;99574.28;;;4.17;90.89
78223;BME280;67497;53.058;21.618;2024-02-26T01:09:06;99564.72;;;4.13;90.76
78223;BME280;67497;53.058;21.618;2024-02-26T01:11:08;99563.25;;;4.09;91.23
78223;BME280;67497;53.058;21.618;2024-02-26T01:13:08;99566.47;;;4.03;91.72
78223;BME280;67497;53.058;21.618;2024-02-26T01:15:09;99570.28;;;4.01;91.86
78223;BME280;67497;53.058;21.618;2024-02-26T01:17:09;99567.53;;;3.91;91.55
78223;BME280;67497;53.058;21.618;2024-02-26T01:19:10;99564.94;;;3.90;91.55
78223;BME280;67497;53.058;21.618;2024-02-26T01:21:10;99562.47;;;3.87;91.52
78223;BME280;67497;53.058;21.618;2024-02-26T01:23:10;99554.22;;;3.88;92.16
78223;BME280;67497;53.058;21.618;2024-02-26T01:25:12;99565.53;;;3.93;91.47
78223;BME280;67497;53.058;21.618;2024-02-26T01:27:12;99559.13;;;3.94;92.03
78223;BME280;67497;53.058;21.618;2024-02-26T01:29:14;99550.75;;;3.97;91.87
78223;BME280;67497;53.058;21.618;2024-02-26T01:31:14;99555.88;;;4.00;91.77
78223;BME280;67497;53.058;21.618;2024-02-26T01:33:15;99566.22;;;4.06;91.69
78223;BME280;67497;53.058;21.618;2024-02-26T01:35:15;99547.75;;;4.00;91.04
78223;BME280;67497;53.058;21.618;2024-02-26T01:37:15;99555.09;;;4.09;90.91
78223;BME280;67497;53.058;21.618;2024-02-26T01:39:16;99553.53;;;4.07;90.60
78223;BME280;67497;53.058;21.618;2024-02-26T01:41:16;99557.97;;;4.08;90.89
78223;BME280;67497;53.058;21.618;2024-02-26T01:43:17;99559.56;;;4.10;91.16
78223;BME280;67497;53.058;21.618;2024-02-26T01:45:17;99561.03;;;4.03;90.44
78223;BME280;67497;53.058;21.618;2024-02-26T01:47:26;99565.47;;;4.04;91.01
78223;BME280;67497;53.058;21.618;2024-02-26T01:49:28;99564.31;;;3.97;91.46
78223;BME280;67497;53.058;21.618;2024-02-26T01:51:31;99561.69;;;3.96;91.16
78223;BME280;67497;53.058;21.618;2024-02-26T01:53:32;99574.63;;;3.92;90.78
78223;BME280;67497;53.058;21.618;2024-02-26T01:55:33;99564.59;;;3.83;90.87
78223;BME280;67497;53.058;21.618;2024-02-26T01:57:34;99570.28;;;3.80;91.25
78223;BME280;67497;53.058;21.618;2024-02-26T01:59:34;99563.16;;;3.68;90.64
78223;BME280;67497;53.058;21.618;2024-02-26T02:01:36;99573.31;;;3.55;91.13
78223;BME280;67497;53.058;21.618;2024-02-26T02:03:36;99561.78;;;3.42;92.13
78223;BME280;67497;53.058;21.618;2024-02-26T02:05:37;99566.72;;;3.37;92.87
78223;BME280;67497;53.058;21.618;2024-02-26T02:07:41;99556.28;;;3.32;92.96
78223;BME280;67497;53.058;21.618;2024-02-26T02:09:43;99556.00;;;3.35;93.25
78223;BME280;67497;53.058;21.618;2024-02-26T02:11:43;99568.44;;;3.38;93.09
78223;BME280;67497;53.058;21.618;2024-02-26T02:13:44;99569.16;;;3.40;92.81
78223;BME280;67497;53.058;21.618;2024-02-26T02:15:45;99559.31;;;3.39;92.27
78223;BME280;67497;53.058;21.618;2024-02-26T02:17:45;99550.00;;;3.32;92.18
78223;BME280;67497;53.058;21.618;2024-02-26T02:19:46;99558.13;;;3.32;92.60
78223;BME280;67497;53.058;21.618;2024-02-26T02:21:46;99571.66;;;3.32;91.40
78223;BME280;67497;53.058;21.618;2024-02-26T02:23:46;99567.59;;;3.26;91.30
78223;BME280;67497;53.058;21.618;2024-02-26T02:25:49;99570.41;;;3.25;92.15
78223;BME280;67497;53.058;21.618;2024-02-26T02:27:50;99576.34;;;3.30;92.45
78223;BME280;67497;53.058;21.618;2024-02-26T02:29:52;99581.22;;;3.36;93.03
78223;BME280;67497;53.058;21.618;2024-02-26T02:31:52;99583.69;;;3.39;92.82
78223;BME280;67497;53.058;21.618;2024-02-26T02:33:52;99580.09;;;3.38;92.85
78223;BME280;67497;53.058;21.618;2024-02-26T02:35:53;99579.63;;;3.33;92.14
78223;BME280;67497;53.058;21.618;2024-02-26T02:37:56;99582.72;;;3.29;92.41
78223;BME280;67497;53.058;21.618;2024-02-26T02:39:57;99579.53;;;3.24;92.47
78223;BME280;67497;53.058;21.618;2024-02-26T02:41:58;99577.31;;;3.18;92.57
78223;BME280;67497;53.058;21.618;2024-02-26T02:43:58;99588.63;;;3.23;92.99
78223;BME280;67497;53.058;21.618;2024-02-26T02:45:58;99593.31;;;3.21;92.61
78223;BME280;67497;53.058;21.618;2024-02-26T02:47:59;99585.81;;;3.24;92.83
78223;BME280;67497;53.058;21.618;2024-02-26T02:49:59;99580.50;;;3.23;92.88
78223;BME280;67497;53.058;21.618;2024-02-26T02:52:00;99580.13;;;3.27;92.41
78223;BME280;67497;53.058;21.618;2024-02-26T02:54:01;99583.44;;;3.31;92.73
78223;BME280;67497;53.058;21.618;2024-02-26T02:56:01;99584.78;;;3.36;92.96
78223;BME280;67497;53.058;21.618;2024-02-26T02:58:02;99587.13;;;3.41;93.10
78223;BME280;67497;53.058;21.618;2024-02-26T03:00:02;99589.09;;;3.39;93.03
78223;BME280;67497;53.058;21.618;2024-02-26T03:02:04;99586.78;;;3.34;92.81
78223;BME280;67497;53.058;21.618;2024-02-26T03:04:05;99580.09;;;3.38;93.09
78223;BME280;67497;53.058;21.618;2024-02-26T03:06:05;99574.94;;;3.35;93.15
78223;BME280;67497;53.058;21.618;2024-02-26T03:08:06;99591.69;;;3.40;93.45
78223;BME280;67497;53.058;21.618;2024-02-26T03:10:06;99589.00;;;3.40;93.76
78223;BME280;67497;53.058;21.618;2024-02-26T03:12:07;99595.59;;;3.47;93.40
78223;BME280;67497;53.058;21.618;2024-02-26T03:14:07;99588.09;;;3.51;93.73
78223;BME280;67497;53.058;21.618;2024-02-26T03:16:09;99587.72;;;3.55;93.41
78223;BME280;67497;53.058;21.618;2024-02-26T03:18:09;99596.19;;;3.62;93.54
78223;BME280;67497;53.058;21.618;2024-02-26T03:20:10;99594.22;;;3.64;93.54
78223;BME280;67497;53.058;21.618;2024-02-26T03:22:10;99601.09;;;3.68;93.48
78223;BME280;67497;53.058;21.618;2024-02-26T03:24:10;99596.41;;;3.70;93.11
78223;BME280;67497;53.058;21.618;2024-02-26T03:26:12;99599.63;;;3.64;93.12
78223;BME280;67497;53.058;21.618;2024-02-26T03:28:14;99592.47;;;3.63;93.47
78223;BME280;67497;53.058;21.618;2024-02-26T03:30:16;99598.50;;;3.67;93.39
78223;BME280;67497;53.058;21.618;2024-02-26T03:32:16;99599.38;;;3.67;93.52
78223;BME280;67497;53.058;21.618;2024-02-26T03:34:16;99600.97;;;3.70;93.94
78223;BME280;67497;53.058;21.618;2024-02-26T03:36:18;99602.31;;;3.75;94.22
78223;BME280;67497;53.058;21.618;2024-02-26T03:38:19;99607.19;;;3.81;93.97
78223;BME280;67497;53.058;21.618;2024-02-26T03:40:19;99612.13;;;3.76;93.86
78223;BME280;67497;53.058;21.618;2024-02-26T03:42:20;99606.00;;;3.74;93.32
78223;BME280;67497;53.058;21.618;2024-02-26T03:44:21;99601.69;;;3.72;93.14
78223;BME280;67497;53.058;21.618;2024-02-26T03:46:21;99600.31;;;3.77;93.68
78223;BME280;67497;53.058;21.618;2024-02-26T03:48:22;99602.78;;;3.80;93.08
78223;BME280;67497;53.058;21.618;2024-02-26T03:50:22;99606.94;;;3.84;93.17
78223;BME280;67497;53.058;21.618;2024-02-26T03:52:22;99608.31;;;3.79;92.83
78223;BME280;67497;53.058;21.618;2024-02-26T03:54:23;99607.47;;;3.78;93.00
78223;BME280;67497;53.058;21.618;2024-02-26T03:56:25;99602.88;;;3.79;93.48
78223;BME280;67497;53.058;21.618;2024-02-26T03:58:25;99605.50;;;3.80;93.29
78223;BME280;67497;53.058;21.618;2024-02-26T04:00:26;99620.16;;;3.78;93.06
78223;BME280;67497;53.058;21.618;2024-02-26T04:02:26;99622.72;;;3.79;92.77
78223;BME280;67497;53.058;21.618;2024-02-26T04:04:27;99614.84;;;3.76;92.96
78223;BME280;67497;53.058;21.618;2024-02-26T04:06:27;99623.59;;;3.80;92.80
78223;BME280;67497;53.058;21.618;2024-02-26T04:08:27;99625.19;;;3.82;92.67
78223;BME280;67497;53.058;21.618;2024-02-26T04:10:28;99610.66;;;3.83;92.59
78223;BME280;67497;53.058;21.618;2024-02-26T04:12:28;99620.88;;;3.80;92.93
78223;BME280;67497;53.058;21.618;2024-02-26T04:14:28;99615.72;;;3.77;93.06
78223;BME280;67497;53.058;21.618;2024-02-26T04:16:29;99610.53;;;3.74;92.70
78223;BME280;67497;53.058;21.618;2024-02-26T04:18:29;99627.19;;;3.69;92.90
78223;BME280;67497;53.058;21.618;2024-02-26T04:20:30;99625.84;;;3.63;93.26
78223;BME280;67497;53.058;21.618;2024-02-26T04:22:30;99614.16;;;3.52;93.21
78223;BME280;67497;53.058;21.618;2024-02-26T04:24:31;99615.66;;;3.45;93.50
78223;BME280;67497;53.058;21.618;2024-02-26T04:26:31;99617.66;;;3.43;93.52
78223;BME280;67497;53.058;21.618;2024-02-26T04:28:32;99615.44;;;3.37;93.49
78223;BME280;67497;53.058;21.618;2024-02-26T04:30:32;99612.34;;;3.30;93.60
78223;BME280;67497;53.058;21.618;2024-02-26T04:32:32;99615.44;;;3.26;93.88
78223;BME280;67497;53.058;21.618;2024-02-26T04:34:34;99606.34;;;3.27;93.26
78223;BME280;67497;53.058;21.618;2024-02-26T04:36:35;99616.06;;;3.29;93.19
78223;BME280;67497;53.058;21.618;2024-02-26T04:38:35;99621.34;;;3.31;92.95
78223;BME280;67497;53.058;21.618;2024-02-26T04:40:35;99608.06;;;3.28;92.96
78223;BME280;67497;53.058;21.618;2024-02-26T04:42:36;99611.88;;;3.36;93.22
78223;BME280;67497;53.058;21.618;2024-02-26T04:44:36;99608.03;;;3.39;93.03
78223;BME280;67497;53.058;21.618;2024-02-26T04:46:36;99602.63;;;3.39;93.02
78223;BME280;67497;53.058;21.618;2024-02-26T04:48:37;99603.34;;;3.41;92.76
78223;BME280;67497;53.058;21.618;2024-02-26T04:50:38;99608.53;;;3.33;92.95
78223;BME280;67497;53.058;21.618;2024-02-26T04:52:38;99598.34;;;3.25;92.73
78223;BME280;67497;53.058;21.618;2024-02-26T04:54:39;99604.13;;;3.21;93.23
78223;BME280;67497;53.058;21.618;2024-02-26T04:56:39;99602.66;;;3.17;93.52
78223;BME280;67497;53.058;21.618;2024-02-26T04:58:39;99601.44;;;3.10;93.10
78223;BME280;67497;53.058;21.618;2024-02-26T05:00:40;99594.69;;;3.04;93.93
78223;BME280;67497;53.058;21.618;2024-02-26T05:02:40;99599.72;;;2.97;93.13
78223;BME280;67497;53.058;21.618;2024-02-26T05:04:41;99595.78;;;3.01;93.75
78223;BME280;67497;53.058;21.618;2024-02-26T05:06:41;99596.16;;;2.97;93.59
78223;BME280;67497;53.058;21.618;2024-02-26T05:08:41;99596.75;;;3.00;94.36
78223;BME280;67497;53.058;21.618;2024-02-26T05:10:45;99602.06;;;3.02;94.65
78223;BME280;67497;53.058;21.618;2024-02-26T05:12:46;99598.00;;;2.96;94.82
78223;BME280;67497;53.058;21.618;2024-02-26T05:14:46;99601.69;;;2.95;94.61
78223;BME280;67497;53.058;21.618;2024-02-26T05:16:47;99601.69;;;2.95;94.47
78223;BME280;67497;53.058;21.618;2024-02-26T05:18:47;99605.38;;;2.94;94.55
78223;BME280;67497;53.058;21.618;2024-02-26T05:20:48;99602.44;;;2.86;93.66
78223;BME280;67497;53.058;21.618;2024-02-26T05:22:48;99599.84;;;2.85;93.69
78223;BME280;67497;53.058;21.618;2024-02-26T05:24:49;99606.59;;;2.90;94.31
78223;BME280;67497;53.058;21.618;2024-02-26T05:26:51;99622.34;;;2.96;94.10
78223;BME280;67497;53.058;21.618;2024-02-26T05:28:51;99617.56;;;3.00;93.68
78223;BME280;67497;53.058;21.618;2024-02-26T05:30:51;99617.66;;;2.98;94.93
78223;BME280;67497;53.058;21.618;2024-02-26T05:32:52;99610.53;;;2.97;93.97
78223;BME280;67497;53.058;21.618;2024-02-26T05:34:52;99623.72;;;3.02;94.75
78223;BME280;67497;53.058;21.618;2024-02-26T05:36:53;99624.28;;;3.06;95.33
78223;BME280;67497;53.058;21.618;2024-02-26T05:38:53;99620.28;;;3.00;95.09
78223;BME280;67497;53.058;21.618;2024-02-26T05:40:53;99628.50;;;2.98;95.16
78223;BME280;67497;53.058;21.618;2024-02-26T05:42:54;99625.28;;;2.93;94.76
78223;BME280;67497;53.058;21.618;2024-02-26T05:44:54;99624.44;;;2.93;94.67
78223;BME280;67497;53.058;21.618;2024-02-26T05:46:55;99633.16;;;2.96;94.59
78223;BME280;67497;53.058;21.618;2024-02-26T05:48:55;99627.53;;;2.99;94.84
78223;BME280;67497;53.058;21.618;2024-02-26T05:50:55;99633.91;;;3.10;95.04
78223;BME280;67497;53.058;21.618;2024-02-26T05:52:56;99638.34;;;3.11;94.15
78223;BME280;67497;53.058;21.618;2024-02-26T05:54:56;99635.25;;;3.15;94.90
78223;BME280;67497;53.058;21.618;2024-02-26T05:56:57;99633.91;;;3.21;94.77
78223;BME280;67497;53.058;21.618;2024-02-26T05:58:57;99635.13;;;3.17;94.45
78223;BME280;67497;53.058;21.618;2024-02-26T06:00:58;99620.13;;;3.13;94.48
78223;BME280;67497;53.058;21.618;2024-02-26T06:02:58;99639.56;;;3.18;94.67
78223;BME280;67497;53.058;21.618;2024-02-26T06:04:59;99628.75;;;3.18;95.33
78223;BME280;67497;53.058;21.618;2024-02-26T06:06:59;99636.47;;;3.22;94.19
78223;BME280;67497;53.058;21.618;2024-02-26T06:08:59;99628.00;;;3.16;94.69
78223;BME280;67497;53.058;21.618;2024-02-26T06:11:05;99636.13;;;3.16;94.01
78223;BME280;67497;53.058;21.618;2024-02-26T06:13:05;99644.59;;;3.22;94.89
78223;BME280;67497;53.058;21.618;2024-02-26T06:15:06;99651.59;;;3.25;93.47
78223;BME280;67497;53.058;21.618;2024-02-26T06:17:07;99649.41;;;3.30;93.46
78223;BME280;67497;53.058;21.618;2024-02-26T06:19:07;99645.59;;;3.32;93.05
78223;BME280;67497;53.058;21.618;2024-02-26T06:21:11;99651.09;;;3.53;93.63
78223;BME280;67497;53.058;21.618;2024-02-26T06:23:11;99657.94;;;3.79;93.64
78223;BME280;67497;53.058;21.618;2024-02-26T06:25:11;99654.56;;;3.98;91.18
78223;BME280;67497;53.058;21.618;2024-02-26T06:27:12;99659.19;;;4.18;91.67
78223;BME280;67497;53.058;21.618;2024-02-26T06:29:12;99664.81;;;4.47;90.07
78223;BME280;67497;53.058;21.618;2024-02-26T06:31:12;99650.16;;;4.70;88.08
78223;BME280;67497;53.058;21.618;2024-02-26T06:33:15;99663.75;;;5.00;86.82
78223;BME280;67497;53.058;21.618;2024-02-26T06:35:16;99667.94;;;5.34;85.27
78223;BME280;67497;53.058;21.618;2024-02-26T06:37:16;99660.31;;;5.59;84.04
78223;BME280;67497;53.058;21.618;2024-02-26T06:39:16;99658.94;;;5.74;82.77
78223;BME280;67497;53.058;21.618;2024-02-26T06:41:18;99664.44;;;5.93;83.21
78223;BME280;67497;53.058;21.618;2024-02-26T06:43:18;99669.06;;;6.12;82.09
78223;BME280;67497;53.058;21.618;2024-02-26T06:45:18;99666.81;;;6.45;80.85
78223;BME280;67497;53.058;21.618;2024-02-26T06:47:19;99662.63;;;6.89;79.49
78223;BME280;67497;53.058;21.618;2024-02-26T06:49:20;99669.44;;;7.49;76.64
78223;BME280;67497;53.058;21.618;2024-02-26T06:51:20;99677.53;;;7.96;75.73
78223;BME280;67497;53.058;21.618;2024-02-26T06:53:21;99675.84;;;7.95;74.26
78223;BME280;67497;53.058;21.618;2024-02-26T06:55:21;99676.72;;;7.86;75.76
78223;BME280;67497;53.058;21.618;2024-02-26T06:57:21;99679.09;;;7.71;76.33
78223;BME280;67497;53.058;21.618;2024-02-26T06:59:22;99675.09;;;7.65;76.48
78223;BME280;67497;53.058;21.618;2024-02-26T07:01:23;99691.88;;;7.98;75.95
78223;BME280;67497;53.058;21.618;2024-02-26T07:03:24;99686.09;;;8.01;75.79
78223;BME280;67497;53.058;21.618;2024-02-26T07:05:26;99683.69;;;7.70;76.32
78223;BME280;67497;53.058;21.618;2024-02-26T07:07:26;99685.03;;;7.20;76.89
78223;BME280;67497;53.058;21.618;2024-02-26T07:09:27;99696.41;;;6.87;77.66
78223;BME280;67497;53.058;21.618;2024-02-26T07:11:27;99697.88;;;6.72;80.12
78223;BME280;67497;53.058;21.618;2024-02-26T07:13:28;99694.44;;;6.50;79.85
78223;BME280;67497;53.058;21.618;2024-02-26T07:15:28;99701.88;;;6.29;80.91
78223;BME280;67497;53.058;21.618;2024-02-26T07:17:28;99698.56;;;6.26;81.20
78223;BME280;67497;53.058;21.618;2024-02-26T07:19:29;99706.41;;;6.19;81.29
78223;BME280;67497;53.058;21.618;2024-02-26T07:21:30;99708.97;;;6.11;82.05
78223;BME280;67497;53.058;21.618;2024-02-26T07:23:31;99714.13;;;6.05;82.74
78223;BME280;67497;53.058;21.618;2024-02-26T07:25:31;99716.81;;;5.95;82.40
78223;BME280;67497;53.058;21.618;2024-02-26T07:27:32;99711.53;;;6.03;83.71
78223;BME280;67497;53.058;21.618;2024-02-26T07:29:32;99720.00;;;6.19;82.98
78223;BME280;67497;53.058;21.618;2024-02-26T07:31:33;99720.31;;;6.35;83.35
78223;BME280;67497;53.058;21.618;2024-02-26T07:33:33;99709.75;;;6.42;84.22
78223;BME280;67497;53.058;21.618;2024-02-26T07:35:34;99720.63;;;6.42;84.20
78223;BME280;67497;53.058;21.618;2024-02-26T07:37:36;99715.34;;;6.40;85.24
78223;BME280;67497;53.058;21.618;2024-02-26T07:39:36;99709.19;;;6.48;85.38
78223;BME280;67497;53.058;21.618;2024-02-26T07:41:37;99718.22;;;6.68;85.78
78223;BME280;67497;53.058;21.618;2024-02-26T07:43:39;99710.19;;;6.76;85.28
78223;BME280;67497;53.058;21.618;2024-02-26T07:45:39;99711.47;;;6.81;86.44
78223;BME280;67497;53.058;21.618;2024-02-26T07:47:39;99717.31;;;6.96;86.55
78223;BME280;67497;53.058;21.618;2024-02-26T07:49:41;99711.16;;;7.13;86.71
78223;BME280;67497;53.058;21.618;2024-02-26T07:51:42;99717.50;;;7.50;85.80
78223;BME280;67497;53.058;21.618;2024-02-26T07:53:42;99718.13;;;7.71;84.39
78223;BME280;67497;53.058;21.618;2024-02-26T07:55:43;99705.63;;;7.78;84.49
78223;BME280;67497;53.058;21.618;2024-02-26T07:57:43;99708.22;;;7.70;85.40
78223;BME280;67497;53.058;21.618;2024-02-26T07:59:44;99710.00;;;7.62;85.31
78223;BME280;67497;53.058;21.618;2024-02-26T08:01:49;99706.69;;;7.58;85.79
78223;BME280;67497;53.058;21.618;2024-02-26T08:03:50;99698.84;;;7.82;85.47
78223;BME280;67497;53.058;21.618;2024-02-26T08:05:51;99693.19;;;9.09;80.78
78223;BME280;67497;53.058;21.618;2024-02-26T08:07:51;99700.69;;;9.92;77.17
78223;BME280;67497;53.058;21.618;2024-02-26T08:09:52;99703.72;;;9.81;77.50
78223;BME280;67497;53.058;21.618;2024-02-26T08:11:56;99708.66;;;10.69;73.98
78223;BME280;67497;53.058;21.618;2024-02-26T08:14:28;99710.38;;;11.43;70.73
78223;BME280;67497;53.058;21.618;2024-02-26T08:16:34;99702.78;;;12.24;69.52
78223;BME280;67497;53.058;21.618;2024-02-26T08:18:34;99707.06;;;12.80;66.26
78223;BME280;67497;53.058;21.618;2024-02-26T08:20:35;99712.59;;;13.26;64.48
78223;BME280;67497;53.058;21.618;2024-02-26T08:22:36;99712.97;;;13.74;64.21
78223;BME280;67497;53.058;21.618;2024-02-26T08:24:37;99722.47;;;13.72;63.69
78223;BME280;67497;53.058;21.618;2024-02-26T08:26:38;99715.44;;;13.99;62.96
78223;BME280;67497;53.058;21.618;2024-02-26T08:28:38;99723.13;;;14.03;61.56
78223;BME280;67497;53.058;21.618;2024-02-26T08:30:39;99724.66;;;13.91;62.25
78223;BME280;67497;53.058;21.618;2024-02-26T08:32:39;99744.38;;;13.65;62.97
78223;BME280;67497;53.058;21.618;2024-02-26T08:35:00;99729.47;;;13.23;63.28
78223;BME280;67497;53.058;21.618;2024-02-26T08:37:00;99723.41;;;13.64;63.93
78223;BME280;67497;53.058;21.618;2024-02-26T08:39:06;99728.69;;;13.06;64.44
78223;BME280;67497;53.058;21.618;2024-02-26T08:41:18;99740.22;;;12.79;64.11
78223;BME280;67497;53.058;21.618;2024-02-26T08:43:18;99727.53;;;12.78;64.65
78223;BME280;67497;53.058;21.618;2024-02-26T08:45:19;99738.00;;;13.05;64.13
78223;BME280;67497;53.058;21.618;2024-02-26T08:47:19;99733.34;;;12.83;65.75
78223;BME280;67497;53.058;21.618;2024-02-26T08:49:20;99756.59;;;12.72;65.60
78223;BME280;67497;53.058;21.618;2024-02-26T08:51:22;99738.94;;;12.67;66.27
78223;BME280;67497;53.058;21.618;2024-02-26T08:53:23;99737.72;;;12.38;65.89
78223;BME280;67497;53.058;21.618;2024-02-26T08:55:23;99744.09;;;12.70;68.47
78223;BME280;67497;53.058;21.618;2024-02-26T08:57:24;99738.69;;;12.53;64.78
78223;BME280;67497;53.058;21.618;2024-02-26T08:59:27;99742.53;;;11.81;66.87
78223;BME280;67497;53.058;21.618;2024-02-26T09:01:27;99741.84;;;11.87;67.03
78223;BME280;67497;53.058;21.618;2024-02-26T09:03:28;99735.84;;;11.92;69.05
78223;BME280;67497;53.058;21.618;2024-02-26T09:05:28;99747.28;;;12.04;68.44
78223;BME280;67497;53.058;21.618;2024-02-26T09:07:29;99734.31;;;12.28;66.38
78223;BME280;67497;53.058;21.618;2024-02-26T09:09:29;99740.41;;;12.46;66.08
78223;BME280;67497;53.058;21.618;2024-02-26T09:11:30;99743.72;;;12.73;64.10
78223;BME280;67497;53.058;21.618;2024-02-26T09:13:31;99759.84;;;12.98;65.57
78223;BME280;67497;53.058;21.618;2024-02-26T09:15:31;99749.13;;;12.89;65.25
78223;BME280;67497;53.058;21.618;2024-02-26T09:17:31;99761.75;;;12.98;63.44
78223;BME280;67497;53.058;21.618;2024-02-26T09:19:32;99748.13;;;12.82;63.31
78223;BME280;67497;53.058;21.618;2024-02-26T09:21:32;99759.75;;;12.92;62.10
78223;BME280;67497;53.058;21.618;2024-02-26T09:23:33;99754.19;;;13.00;63.07
78223;BME280;67497;53.058;21.618;2024-02-26T09:25:35;99756.97;;;13.23;63.75
78223;BME280;67497;53.058;21.618;2024-02-26T09:27:35;99762.72;;;13.13;64.03
78223;BME280;67497;53.058;21.618;2024-02-26T09:29:36;99765.41;;;13.21;62.03
78223;BME280;67497;53.058;21.618;2024-02-26T09:31:36;99763.28;;;13.00;62.47
78223;BME280;67497;53.058;21.618;2024-02-26T09:33:37;99766.13;;;13.15;61.34
78223;BME280;67497;53.058;21.618;2024-02-26T09:35:37;99764.69;;;13.27;61.49
78223;BME280;67497;53.058;21.618;2024-02-26T09:37:38;99758.28;;;13.49;61.26
78223;BME280;67497;53.058;21.618;2024-02-26T09:39:38;99750.22;;;13.48;61.95
78223;BME280;67497;53.058;21.618;2024-02-26T09:41:39;99753.47;;;13.51;59.51
78223;BME280;67497;53.058;21.618;2024-02-26T09:43:43;99754.72;;;13.63;60.48
78223;BME280;67497;53.058;21.618;2024-02-26T09:45:44;99750.31;;;13.54;60.21
78223;BME280;67497;53.058;21.618;2024-02-26T09:47:45;99735.56;;;13.70;60.68
78223;BME280;67497;53.058;21.618;2024-02-26T09:49:48;99751.53;;;13.89;60.69
78223;BME280;67497;53.058;21.618;2024-02-26T09:51:49;99744.75;;;13.62;59.73
78223;BME280;67497;53.058;21.618;2024-02-26T09:53:54;99748.69;;;13.97;60.20
78223;BME280;67497;53.058;21.618;2024-02-26T09:55:56;99752.00;;;13.93;58.71
78223;BME280;67497;53.058;21.618;2024-02-26T09:57:57;99758.28;;;14.16;58.09
78223;BME280;67497;53.058;21.618;2024-02-26T09:59:59;99749.50;;;14.35;58.56
78223;BME280;67497;53.058;21.618;2024-02-26T10:02:08;99760.31;;;14.51;57.00
78223;BME280;67497;53.058;21.618;2024-02-26T10:04:11;99754.78;;;14.51;58.17
78223;BME280;67497;53.058;21.618;2024-02-26T10:06:11;99748.09;;;14.60;57.48
78223;BME280;67497;53.058;21.618;2024-02-26T10:08:12;99761.81;;;14.39;57.82
78223;BME280;67497;53.058;21.618;2024-02-26T10:10:14;99753.13;;;14.27;58.29
78223;BME280;67497;53.058;21.618;2024-02-26T10:12:16;99763.78;;;14.30;58.96
78223;BME280;67497;53.058;21.618;2024-02-26T10:14:17;99763.91;;;14.08;58.36
78223;BME280;67497;53.058;21.618;2024-02-26T10:16:17;99762.97;;;14.30;58.73
78223;BME280;67497;53.058;21.618;2024-02-26T10:18:18;99764.84;;;14.29;57.50
78223;BME280;67497;53.058;21.618;2024-02-26T10:20:18;99764.69;;;14.46;58.12
78223;BME280;67497;53.058;21.618;2024-02-26T10:22:22;99762.56;;;14.33;58.13
78223;BME280;67497;53.058;21.618;2024-02-26T10:24:23;99760.31;;;14.22;59.32
78223;BME280;67497;53.058;21.618;2024-02-26T10:26:24;99762.56;;;14.33;60.31
78223;BME280;67497;53.058;21.618;2024-02-26T10:28:24;99766.56;;;14.45;59.42
78223;BME280;67497;53.058;21.618;2024-02-26T10:30:45;99757.94;;;14.33;60.46
78223;BME280;67497;53.058;21.618;2024-02-26T10:32:47;99757.53;;;14.07;60.89
78223;BME280;67497;53.058;21.618;2024-02-26T10:35:16;99762.66;;;14.25;62.22
78223;BME280;67497;53.058;21.618;2024-02-26T10:37:26;99762.56;;;14.04;60.74
78223;BME280;67497;53.058;21.618;2024-02-26T10:39:26;99764.47;;;14.18;61.77